Aeroporto :
LOGIN :

Iscrizione | Disclaimer

   EN    FR    IT 

 










Sommario :    VFR   VFR Marginale   IFR   IFR Intensivo   IFR Molto Intensivo
Visibilità : 
Base nubi : 
>= 8 km
>= 3000ft
5 / 8 km
1000 / 3000 ft
1500m / 5 km
500 / 1000 ft
800 / 1500m
200 / 500 ft
< 800m
< 200 ft
Simboli :   Temporali  Nebbia  Neve Forte  Precipitazioni Forti  Vento > 20 kt
SIGMETs :   Varie  Temporali  Ghiacco  Turbolenza  Onda orograficha  Ceneri Vulcaniche






- Altitudine del aeroporto : 326 ft
- Codice IATA : LCG


LECO - A Coruna

ULTIMO METAR :
  • 171600Z 31011KT 250V010 9999 SCT035 11/04 Q1032 NOSIG

METARs OBSOLETI :
  • 171530Z 32008KT 260V010 9999 SCT032 12/05 Q1032 NOSIG
  • 171500Z 32009KT 250V030 9999 FEW032 12/05 Q1032 NOSIG
  • 171430Z 34011G22KT 270V020 9999 SCT032 BKN045 11/05 Q1032 NOSIG
  • 171400Z 33009KT 260V030 9999 FEW035 SCT045 12/07 Q1032 NOSIG
  • 171330Z 32010KT 270V020 9999 SCT035 12/05 Q1031 NOSIG

TAF TAF LECO
Valido dal 17 a 15 ore il 18 a 15 ore UTC


171400Z 1715/1815 27009KT 9999 SCT035 TX13/1813Z TN05/1807Z



MetMap, La meteo Aeronautica in un colpo d'occhio ! - Copyright ORBIFLY Dicembre 2007 - Disclaimer

ORBIFLY MET'MAP TEAM :

Programmazione e sviluppo : Alexandra Zaïnal
Concezione : Baudouin d'Aumeries
Aiuto per la programmazione : Marc-Olivier Méhu
Supporto tecnico e logistico : Manuel Goepfert
Aiuto per la traduzione : Arnaldo La Scala

Contatto : metmap@orbifly.com




FONTI E CREDITI :

   NOAA